Flight Track Log - Related Links

Times and Time Zones

All times are in EDT time to prevent confusion due to time zone crossing. See the TAM3442 flight status page for this flight to view local times or setup timezone preferences in your user account.


Time Position Orientation Groundspeed Altitude Reporting Facility
EDT Latitude Longitude Course Direction KTS MPH feet Rate Location/Type
Wed 09:51:39 PM -23.4300 -46.4860 95° East 10 12  Level FlightAware ADS-B
Wed 09:52:19 PM -23.4300 -46.4840 90° East 6 7 222 Level FlightAware ADS-B
Wed 09:52:49 PM -23.4310 -46.4840 180° South 1 1 234 Level FlightAware ADS-B
Wed 09:55:00 PM -23.2960 -46.3918 32° Northeast  Level Estimated
Wed 09:56:00 PM -23.2341 -46.3496 32° Northeast  Level Estimated
Wed 09:57:00 PM -23.1722 -46.3074 32° Northeast  Level Estimated
Wed 09:57:09 PM -23.4320 -46.4840 32° Northeast 2 2  Level FlightAware ADS-B
Wed 09:57:54 PM -23.4330 -46.4840 180° South 5 6 375 Level FlightAware ADS-B
Wed 10:00:00 PM -23.3031 -46.3953 32° Northeast  Level Estimated
Wed 10:01:00 PM -23.2412 -46.3531 32° Northeast  Level Estimated
Wed 10:01:14 PM -23.4340 -46.4830 32° Northeast 6 7  Level FlightAware ADS-B
Wed 10:03:00 PM -23.3247 -46.4084 32° Northeast  Level Estimated
Wed 10:04:00 PM -23.2628 -46.3662 32° Northeast  Level Estimated
Wed 10:04:13 PM -23.4340 -46.4820 32° Northeast 10 12  Level FlightAware ADS-B
Wed 10:04:39 PM -23.4320 -46.4730 76° East 130 150 3,214 Level FlightAware ADS-B
Wed 10:05:09 PM -23.4250 -46.4480 73° East 174 200 3,000 4,111 Climbing FlightAware ADS-B
Wed 10:05:33 PM -23.4190 -46.4280 72° East 189 217 3,700 1,700 Climbing FlightAware ADS-B
Wed 10:06:09 PM -23.4070 -46.3900 71° East 233 268 4,700 2,182 Climbing FlightAware ADS-B
Wed 10:06:28 PM -23.4010 -46.3680 73° East 234 269 5,700 2,100 Climbing FlightAware ADS-B
Wed 10:06:49 PM -23.3890 -46.3490 55° Northeast 252 290 6,100 1,565 Climbing FlightAware ADS-B
Wed 10:07:14 PM -23.3620 -46.3320 30° Northeast 275 316 6,900 2,444 Climbing FlightAware ADS-B
Wed 10:07:43 PM -23.3270 -46.3130 26° Northeast 278 320 8,300 2,800 Climbing FlightAware ADS-B
Wed 10:08:14 PM -23.2910 -46.2920 28° Northeast 296 341 9,700 2,229 Climbing FlightAware ADS-B
Wed 10:08:53 PM -23.2410 -46.2610 30° Northeast 320 368 10,900 1,630 Climbing FlightAware ADS-B
Wed 10:09:35 PM -23.1830 -46.2260 29° Northeast 369 425 11,900 2,025 Climbing FlightAware ADS-B
Wed 10:10:13 PM -23.1240 -46.1910 29° Northeast 368 423 13,600 2,354 Climbing FlightAware ADS-B
Wed 10:10:54 PM -23.0610 -46.1490 32° Northeast 391 450 15,000 2,118 Climbing FlightAware ADS-B
Wed 10:11:38 PM -22.9920 -46.1000 33° Northeast 403 464 16,600 2,148 Climbing FlightAware ADS-B
Wed 10:12:15 PM -22.9320 -46.0600 32° Northeast 415 478 17,900 2,074 Climbing FlightAware ADS-B
Wed 10:12:59 PM -22.8590 -46.0100 32° Northeast 420 483 19,400 2,169 Climbing FlightAware ADS-B
Wed 10:13:38 PM -22.7920 -45.9650 32° Northeast 423 487 20,900 1,929 Climbing FlightAware ADS-B
Wed 10:14:23 PM -22.7160 -45.9130 32° Northeast 441 507 22,100 1,553 Climbing FlightAware ADS-B
Wed 10:15:03 PM -22.6480 -45.8670 32° Northeast 444 511 23,100 1,500 Climbing FlightAware ADS-B
Wed 10:15:39 PM -22.5840 -45.8240 32° Northeast 458 527 24,000 1,440 Climbing FlightAware ADS-B
Wed 10:16:18 PM -22.5110 -45.7740 32° Northeast 460 529 24,900 1,412 Climbing FlightAware ADS-B
Wed 10:17:04 PM -22.4270 -45.7170 32° Northeast 473 544 26,000 1,482 Climbing FlightAware ADS-B
Wed 10:17:43 PM -22.3520 -45.6670 32° Northeast 475 547 27,000 1,643 Climbing FlightAware ADS-B
Wed 10:18:28 PM -22.2680 -45.6110 32° Northeast 473 544 28,300 1,227 Climbing FlightAware ADS-B
Wed 10:19:11 PM -22.2140 -45.5750 32° Northeast 478 550 28,800 978 Climbing FlightAware ADS-B
Wed 10:20:00 PM -22.1200 -45.5110 32° Northeast 485 558 29,800 1,465 Climbing FlightAware ADS-B
Wed 10:20:37 PM -22.0440 -45.4610 31° Northeast 473 544 30,900 857 Climbing FlightAware ADS-B
Wed 10:21:24 PM -21.9590 -45.4040 32° Northeast 470 541 31,000 67 Climbing FlightAware ADS-B
Wed 10:22:06 PM -21.8820 -45.3520 32° Northeast 473 544 31,000  Level FlightAware ADS-B
Wed 10:22:39 PM -21.8000 -45.2970 32° Northeast 473 544 31,000  Level FlightAware ADS-B
Wed 10:23:23 PM -21.7180 -45.2420 32° Northeast 474 545 31,000  Level FlightAware ADS-B
Wed 10:24:04 PM -21.6430 -45.1920 32° Northeast 474 545 31,000  Level FlightAware ADS-B
Wed 10:24:48 PM -21.5590 -45.1360 32° Northeast 478 550 31,000  Level FlightAware ADS-B
Wed 10:25:29 PM -21.4820 -45.0850 32° Northeast 473 544 31,000  Level FlightAware ADS-B
Wed 10:26:09 PM -21.4270 -45.0480 32° Northeast 479 551 31,000  Level FlightAware ADS-B
Wed 10:27:02 PM -21.3380 -44.9900 31° Northeast 480 552 31,000  Level FlightAware ADS-B
Wed 10:27:38 PM -21.2790 -44.9520 31° Northeast 480 552 31,000  Level FlightAware ADS-B
Wed 10:28:23 PM -21.1560 -44.8680 32° Northeast 31,000  Level FlightAware ADS-B
Wed 10:29:04 PM -21.0830 -44.8200 32° Northeast 479 551 31,000  Level FlightAware ADS-B
Wed 10:29:41 PM -21.0200 -44.7800 31° Northeast 475 547 31,000 -1,040 Level FlightAware ADS-B
Wed 10:30:19 PM -20.9370 -44.7440 22° Northeast 471 542 29,700 -2,214 Descending FlightAware ADS-B
Wed 10:31:05 PM -20.8350 -44.7010 22° Northeast 460 529 27,900 -2,100 Descending FlightAware ADS-B
Wed 10:31:39 PM -20.7770 -44.6760 22° Northeast 449 517 26,900 -1,832 Descending FlightAware ADS-B
Wed 10:32:40 PM -20.6700 -44.6310 21° North 432 497 25,000 -2,020 Descending FlightAware ADS-B
Wed 10:33:17 PM -20.5930 -44.5980 22° Northeast 421 484 23,600 -955 Descending FlightAware ADS-B
Wed 10:34:08 PM -20.5150 -44.5660 21° North 421 484 23,600  Level FlightAware ADS-B
Wed 10:34:42 PM -20.4620 -44.5440 21° North 421 484 23,600  Level FlightAware ADS-B
Wed 10:35:40 PM -20.3720 -44.5080 21° North 421 484 23,600  Level FlightAware ADS-B
Wed 10:36:16 PM -20.3170 -44.4850 21° North 421 484 23,600  Level FlightAware ADS-B
Wed 10:36:52 PM -20.2610 -44.4620 21° North 421 484 23,600 -3,000 Level FlightAware ADS-B
Wed 10:39:00 PM -20.1359 -44.3632 37° Northeast  Level Estimated
Wed 10:40:00 PM -20.0772 -44.3170 37° Northeast  Level Estimated
Wed 10:40:26 PM -19.9130 -44.3110 37° Northeast 306 352 11,100  Level FlightAware ADS-B
Wed 10:41:00 PM -19.8760 -44.2960 21° North 306 352 11,000 -73 Descending FlightAware ADS-B
Wed 10:41:48 PM -19.8220 -44.2740 21° North 306 352 11,000 -1,364 Level FlightAware ADS-B
Wed 10:42:28 PM -19.7660 -44.2500 22° Northeast 288 331 9,000 -1,846 Descending FlightAware ADS-B
Wed 10:42:53 PM -19.7390 -44.2390 21° North 288 331 9,000 -270 Level FlightAware ADS-B
Wed 10:43:57 PM -19.6750 -44.2190 16° North 235 270 8,600 -875 Descending FlightAware ADS-B
Wed 10:44:29 PM -19.6860 -44.2220 194° South 235 270 7,600 -1,818 Descending FlightAware ADS-B
Wed 10:45:03 PM -19.5950 -44.1960 15° North 243 280 6,600 -1,424 Descending FlightAware ADS-B
Wed 10:45:28 PM -19.5670 -44.1880 15° North 243 280 6,200 -873 Descending FlightAware ADS-B
Wed 10:45:58 PM -19.5330 -44.1770 17° North 243 280 5,800 -667 Descending FlightAware ADS-B
Wed 10:46:13 PM -19.5240 -44.1670 46° Northeast 248 285 5,700 -480 Descending FlightAware ADS-B
Wed 10:46:23 PM -19.5190 -44.1550 66° East 247 284 5,600 -1,050 Descending FlightAware ADS-B
Wed 10:46:53 PM -19.5060 -44.1190 69° East 246 283 5,000 -640 Descending FlightAware ADS-B
Wed 10:47:38 PM -19.5170 -44.0770 106° East 219 252 4,800 -320 Descending FlightAware ADS-B
Wed 10:48:08 PM -19.5380 -44.0570 138° Southeast 184 212 4,600 -600 Descending FlightAware ADS-B
Wed 10:48:28 PM -19.5530 -44.0430 139° Southeast 168 193 4,300 -800 Descending FlightAware ADS-B
Wed 10:48:53 PM -19.5650 -44.0320 139° Southeast 157 181 4,000 -764 Descending FlightAware ADS-B
Wed 10:49:23 PM -19.5800 -44.0180 139° Southeast 150 173 3,600 -800 Descending FlightAware ADS-B
Wed 10:49:53 PM -19.5980 -44.0010 138° Southeast 145 167 3,200 -476 Descending FlightAware ADS-B
Wed 10:50:26 PM -19.6120 -43.9890 141° Southeast 145 167 3,100 -182 Descending FlightAware ADS-B
Wed 10:51:33 PM -19.6360 -43.9660 138° Southeast 21 24 -2,776 Descending FlightAware ADS-B
Wed 10:51:53 PM -19.6360 -43.9650 90° East 12 14  Level FlightAware ADS-B
Wed 10:52:44 PM -19.6360 -43.9630 90° East 12 14  Level FlightAware ADS-B
Wed 10:53:28 PM -19.6340 -43.9640 335° Northwest 8 9  Level FlightAware ADS-B
Wed 10:54:08 PM -19.6330 -43.9640 360° North 1 1  Level FlightAware ADS-B
Wed 10:56:00 PM -19.6338 -43.9689 261° West  Level Estimated
Wed 10:57:00 PM -19.6338 -43.9689 90° East  Level Estimated
Wed 10:58:00 PM -19.6338 -43.9689 90° East  Level Estimated
Wed 10:59:00 PM -19.6338 -43.9689 90° East  Level Estimated
Wed 11:00:00 PM -19.6338 -43.9689 90° East  Level Estimated
Wed 11:01:00 PM -19.6338 -43.9689 90° East  Level Estimated
Wed 11:02:00 PM -19.6338 -43.9689 90° East  Level Estimated
Wed 11:03:00 PM -19.6338 -43.9689 90° East  Level Estimated
Wed 11:04:00 PM -19.6338 -43.9689 90° East  Level Estimated
Wed 11:05:00 PM -19.6338 -43.9689 90° East  Level Estimated
Wed 11:06:00 PM -19.6338 -43.9689 90° East  Level Estimated
Wed 11:07:00 PM -19.6338 -43.9689 90° East  Level Estimated
Wed 11:08:00 PM -19.6338 -43.9689 90° East  Level Estimated

Login

Don't have an account? Register now (free) for customized features, flight alerts, and more!